Time;durP1;ratioP1;P1;durP2;ratioP2;P2;SDS_P1;SDS_P2;PMS_P1;PMS_P2;Temp;Humidity;BMP_temperature;BMP_pressure;BME280_temperature;BME280_humidity;BME280_pressure;Samples;Min_cycle;Max_cycle;Signal;HPM_P1;HPM_P2
2022/07/09 00:03:43;;;;;;;2.70;2.00;;;13.80;99.90;;;;;;7360078;32;20906;-62
2022/07/09 00:07:45;;;;;;;3.22;2.25;;;13.70;99.90;;;;;;7359686;32;20123;-63
2022/07/09 00:11:47;;;;;;;6.22;2.87;;;13.70;99.90;;;;;;7360131;32;20141;-61
2022/07/09 00:15:49;;;;;;;4.55;2.75;;;13.70;99.90;;;;;;7359562;32;20127;-62
2022/07/09 00:19:52;;;;;;;3.92;2.42;;;13.60;99.90;;;;;;7358840;32;20111;-62
2022/07/09 00:23:54;;;;;;;3.65;2.30;;;13.60;99.90;;;;;;7359916;32;20193;-63
2022/07/09 00:27:55;;;;;;;6.35;2.47;;;13.50;99.90;;;;;;7359142;32;20215;-61
2022/07/09 00:31:57;;;;;;;3.30;2.20;;;13.50;99.90;;;;;;7359707;32;20156;-62
2022/07/09 00:35:59;;;;;;;4.93;2.60;;;13.40;99.90;;;;;;7359382;32;20104;-63
2022/07/09 00:40:00;;;;;;;4.62;2.70;;;13.40;99.90;;;;;;7358913;32;20195;-62
2022/07/09 00:44:02;;;;;;;3.58;2.40;;;13.40;99.90;;;;;;7358863;32;20583;-63
2022/07/09 00:48:04;;;;;;;5.37;2.70;;;13.30;99.90;;;;;;7358849;32;20159;-62
2022/07/09 00:52:07;;;;;;;4.35;2.50;;;13.30;99.90;;;;;;7359586;32;20182;-62
2022/07/09 00:56:10;;;;;;;5.28;2.60;;;13.20;99.90;;;;;;7342083;32;20122;-62
2022/07/09 01:00:12;;;;;;;5.53;2.78;;;13.20;99.90;;;;;;7358208;32;20132;-63
2022/07/09 01:04:14;;;;;;;3.05;2.60;;;13.20;99.90;;;;;;7359316;32;20182;-62
2022/07/09 01:08:16;;;;;;;5.80;2.50;;;13.20;99.90;;;;;;7358134;32;20107;-62
2022/07/09 01:12:18;;;;;;;6.53;2.83;;;13.20;99.90;;;;;;7358927;32;20099;-60
2022/07/09 01:16:20;;;;;;;5.22;2.50;;;13.10;99.90;;;;;;7357095;32;20099;-60
2022/07/09 01:20:23;;;;;;;4.15;2.55;;;13.10;99.90;;;;;;7357997;32;20468;-60
2022/07/09 01:24:26;;;;;;;4.70;2.70;;;13.00;99.90;;;;;;7357827;32;20484;-60
2022/07/09 01:28:28;;;;;;;6.20;2.67;;;13.00;99.90;;;;;;7358221;32;20135;-61
2022/07/09 01:32:30;;;;;;;4.05;2.62;;;13.00;99.90;;;;;;7357538;32;20178;-61
2022/07/09 01:36:32;;;;;;;5.18;2.62;;;12.90;99.90;;;;;;7358504;32;20100;-61
2022/07/09 01:40:33;;;;;;;7.22;2.95;;;13.00;99.90;;;;;;7357815;32;20247;-61
2022/07/09 01:44:35;;;;;;;3.55;2.87;;;13.00;99.90;;;;;;7358247;32;20107;-61
2022/07/09 01:48:38;;;;;;;5.57;2.90;;;13.00;99.90;;;;;;7357723;32;20137;-61
2022/07/09 01:52:40;;;;;;;4.85;3.08;;;13.00;99.90;;;;;;7357819;32;20194;-61
2022/07/09 01:56:42;;;;;;;4.20;2.83;;;13.00;99.90;;;;;;7350047;32;20756;-62
2022/07/09 02:00:44;;;;;;;4.22;3.10;;;13.10;99.90;;;;;;7332829;32;20713;-61
2022/07/09 02:04:46;;;;;;;5.65;3.10;;;13.10;99.90;;;;;;7332781;32;20107;-61
2022/07/09 02:08:48;;;;;;;5.35;2.87;;;13.20;99.90;;;;;;7331763;32;20108;-61
2022/07/09 02:12:50;;;;;;;7.07;3.42;;;13.10;99.90;;;;;;7357356;32;20156;-61
2022/07/09 02:16:52;;;;;;;10.63;3.12;;;13.10;99.90;;;;;;7357897;32;20783;-61
2022/07/09 02:20:55;;;;;;;5.35;2.70;;;13.20;99.90;;;;;;7357418;32;20123;-61
2022/07/09 02:24:57;;;;;;;7.18;2.85;;;13.20;99.90;;;;;;7357221;32;20863;-62
2022/07/09 02:28:59;;;;;;;8.02;3.37;;;13.10;99.90;;;;;;7356714;32;20111;-62
2022/07/09 02:33:01;;;;;;;5.75;3.25;;;13.10;99.90;;;;;;7358246;32;20156;-61
2022/07/09 02:37:05;;;;;;;9.18;3.20;;;13.10;99.90;;;;;;7358059;32;20091;-61
2022/07/09 02:41:06;;;;;;;6.85;3.55;;;13.10;99.90;;;;;;7356813;32;20127;-61
2022/07/09 02:45:08;;;;;;;7.43;2.90;;;13.10;99.90;;;;;;7356422;32;20160;-61
2022/07/09 02:49:10;;;;;;;7.47;3.20;;;13.10;99.90;;;;;;7350045;32;20176;-60
2022/07/09 02:53:12;;;;;;;8.40;3.08;;;13.10;99.90;;;;;;7353834;32;20148;-61
2022/07/09 02:57:13;;;;;;;5.12;3.05;;;13.20;99.90;;;;;;7343009;32;20881;-61
2022/07/09 03:01:15;;;;;;;5.20;3.08;;;13.10;99.90;;;;;;7356560;32;20100;-61
2022/07/09 03:05:17;;;;;;;6.87;3.08;;;13.10;99.90;;;;;;7357627;32;20471;-60
2022/07/09 03:09:19;;;;;;;4.90;3.05;;;13.10;99.90;;;;;;7359526;32;20126;-63
2022/07/09 03:13:20;;;;;;;6.95;3.33;;;13.10;99.90;;;;;;7361817;32;20214;-61
2022/07/09 03:17:22;;;;;;;5.18;3.17;;;13.10;99.90;;;;;;7361892;32;20182;-61
2022/07/09 03:21:24;;;;;;;5.87;2.95;;;13.10;99.90;;;;;;7361950;32;20250;-61
2022/07/09 03:25:25;;;;;;;10.20;3.65;;;13.10;99.90;;;;;;7361523;32;20106;-62
2022/07/09 03:29:27;;;;;;;6.68;3.47;;;13.20;99.90;;;;;;7360883;32;20107;-60
2022/07/09 03:33:29;;;;;;;6.87;3.62;;;13.20;99.90;;;;;;7361221;32;20104;-60
2022/07/09 03:37:31;;;;;;;8.30;4.25;;;13.30;99.90;;;;;;7361531;32;20171;-61
2022/07/09 03:41:33;;;;;;;6.68;3.70;;;13.30;99.90;;;;;;7360909;32;20094;-61
2022/07/09 03:45:34;;;;;;;6.90;3.53;;;13.40;99.90;;;;;;7360678;32;20172;-62
2022/07/09 03:49:36;;;;;;;6.70;3.28;;;13.40;99.90;;;;;;7359637;32;20107;-62
2022/07/09 03:53:38;;;;;;;6.12;3.33;;;13.50;99.90;;;;;;7360598;32;20534;-61
2022/07/09 03:57:40;;;;;;;5.03;3.25;;;13.50;99.90;;;;;;7346550;32;20507;-61
2022/07/09 04:01:42;;;;;;;5.30;3.75;;;13.50;99.90;;;;;;7344085;32;20164;-61
2022/07/09 04:05:44;;;;;;;6.40;3.53;;;13.50;99.90;;;;;;7359985;32;20115;-61
2022/07/09 04:09:46;;;;;;;10.68;3.28;;;13.60;99.90;;;;;;7359936;32;20107;-61
2022/07/09 04:13:47;;;;;;;4.90;3.10;;;13.60;99.90;;;;;;7360600;32;20544;-62
2022/07/09 04:17:49;;;;;;;9.65;3.45;;;13.60;99.90;;;;;;7359116;32;20233;-62
2022/07/09 04:21:51;;;;;;;8.50;3.20;;;13.70;99.90;;;;;;7359852;32;20104;-60
2022/07/09 04:25:53;;;;;;;6.53;3.90;;;13.70;99.90;;;;;;7359911;32;20563;-60
2022/07/09 04:29:55;;;;;;;5.07;3.60;;;13.70;99.90;;;;;;7358902;32;20198;-61
2022/07/09 04:33:57;;;;;;;4.57;2.92;;;13.70;99.90;;;;;;7359839;32;20480;-60
2022/07/09 04:37:58;;;;;;;7.60;3.40;;;13.80;99.90;;;;;;7357056;32;20180;-61
2022/07/09 04:42:00;;;;;;;5.85;2.90;;;13.90;99.90;;;;;;7359818;32;20416;-61
2022/07/09 04:46:02;;;;;;;6.40;3.75;;;13.90;99.90;;;;;;7359445;32;20115;-61
2022/07/09 04:50:04;;;;;;;5.35;3.55;;;13.90;99.90;;;;;;7358575;32;20468;-61
2022/07/09 04:54:06;;;;;;;7.82;3.87;;;14.00;99.90;;;;;;7350646;32;20183;-61
2022/07/09 04:58:07;;;;;;;6.85;3.90;;;14.10;99.90;;;;;;7349796;32;20162;-62
2022/07/09 05:02:09;;;;;;;10.25;4.10;;;14.20;99.90;;;;;;7359899;32;20125;-61
2022/07/09 05:06:11;;;;;;;6.62;4.37;;;14.40;99.90;;;;;;7348219;32;20107;-61
2022/07/09 05:10:13;;;;;;;8.80;3.90;;;14.90;99.90;;;;;;7357674;32;20115;-60
2022/07/09 05:14:14;;;;;;;11.35;4.10;;;15.60;99.90;;;;;;7359147;32;20281;-61
2022/07/09 05:18:16;;;;;;;6.95;3.28;;;16.60;99.90;;;;;;7357862;32;20179;-61
2022/07/09 05:22:18;;;;;;;8.50;2.62;;;17.30;99.90;;;;;;7358847;32;20278;-61
2022/07/09 05:26:20;;;;;;;5.25;3.85;;;18.00;99.90;;;;;;7358072;32;20518;-60
2022/07/09 05:30:21;;;;;;;7.43;5.18;;;18.60;99.90;;;;;;7356397;32;20146;-60
2022/07/09 05:34:24;;;;;;;15.52;11.50;;;19.10;99.90;;;;;;7358956;32;20133;-61
2022/07/09 05:38:26;;;;;;;14.40;11.35;;;19.30;99.90;;;;;;7357388;32;20115;-61
2022/07/09 05:42:28;;;;;;;12.27;11.05;;;19.40;99.90;;;;;;7358457;32;20182;-62
2022/07/09 05:46:29;;;;;;;12.40;9.52;;;19.60;99.90;;;;;;7358449;32;20139;-61
2022/07/09 05:50:31;;;;;;;13.00;11.18;;;20.20;99.90;;;;;;7357815;32;20205;-61
2022/07/09 05:54:33;;;;;;;14.60;12.90;;;20.30;99.90;;;;;;7357626;32;20119;-61
2022/07/09 05:58:35;;;;;;;24.83;17.17;;;19.90;99.90;;;;;;7355818;32;20217;-61
2022/07/09 06:02:46;;;;;;;20.85;16.50;;;19.60;99.90;;;;;;7358887;32;20137;-61
2022/07/09 06:06:47;;;;;;;23.33;17.62;;;19.50;99.90;;;;;;7357674;32;20169;-61
2022/07/09 06:10:49;;;;;;;22.92;17.12;;;19.40;99.90;;;;;;7357074;32;20231;-61
2022/07/09 06:14:51;;;;;;;20.77;17.00;;;19.50;99.90;;;;;;7358045;32;20115;-61
2022/07/09 06:18:53;;;;;;;26.98;19.45;;;19.70;99.90;;;;;;7357131;32;20111;-61
2022/07/09 06:22:55;;;;;;;27.25;20.85;;;19.60;99.90;;;;;;7358889;32;20706;-61
2022/07/09 06:26:57;;;;;;;30.00;21.90;;;19.60;99.90;;;;;;7357166;32;20099;-61
2022/07/09 06:30:59;;;;;;;30.50;21.92;;;20.10;99.90;;;;;;7356857;32;20167;-61
2022/07/09 06:35:00;;;;;;;29.33;19.75;;;20.60;99.90;;;;;;7357415;32;20099;-65
2022/07/09 06:43:23;;;;;;;23.60;18.15;;;21.70;99.90;;;;;;7357892;32;20127;-65
2022/07/09 06:47:25;;;;;;;26.23;19.35;;;21.20;99.90;;;;;;7361478;32;20210;-65
2022/07/09 06:51:26;;;;;;;25.45;17.40;;;21.00;99.90;;;;;;7361384;32;20250;-66
2022/07/09 06:55:28;;;;;;;22.15;15.77;;;20.90;99.90;;;;;;7361795;32;20194;-66
2022/07/09 06:59:30;;;;;;;21.48;15.77;;;20.80;99.90;;;;;;7358727;32;20186;-65
2022/07/09 07:03:32;;;;;;;21.40;15.23;;;20.50;99.90;;;;;;7361475;32;20188;-65
2022/07/09 07:07:33;;;;;;;17.15;12.68;;;20.70;99.90;;;;;;7360843;32;20127;-64
2022/07/09 07:11:35;;;;;;;19.52;12.32;;;21.10;99.90;;;;;;7360914;32;20198;-65
2022/07/09 07:15:37;;;;;;;17.23;12.13;;;21.60;99.90;;;;;;7360742;32;20119;-65
2022/07/09 07:19:39;;;;;;;16.75;12.45;;;22.00;99.90;;;;;;7359301;32;20103;-65
2022/07/09 07:23:41;;;;;;;17.25;11.43;;;22.10;99.90;;;;;;7359950;32;20121;-65
2022/07/09 07:27:42;;;;;;;17.67;13.05;;;21.90;99.90;;;;;;7359965;32;20194;-65
2022/07/09 07:31:44;;;;;;;18.52;12.25;;;21.80;99.90;;;;;;7360322;32;20100;-65
2022/07/09 07:35:46;;;;;;;19.48;13.27;;;21.90;99.90;;;;;;7360525;32;20095;-64
2022/07/09 07:39:48;;;;;;;19.10;12.18;;;22.10;99.90;;;;;;7359556;32;20096;-66
2022/07/09 07:43:50;;;;;;;18.25;12.02;;;22.20;99.90;;;;;;7360212;32;20178;-65
2022/07/09 07:47:54;;;;;;;20.27;11.25;;;22.30;99.90;;;;;;7359137;32;20169;-64
2022/07/09 07:51:55;;;;;;;17.30;10.70;;;22.20;99.90;;;;;;7359241;32;20267;-65
2022/07/09 07:55:59;;;;;;;16.20;8.32;;;21.90;99.90;;;;;;7342013;32;20126;-65
2022/07/09 08:00:02;;;;;;;15.77;8.80;;;21.40;99.90;;;;;;7358890;32;20122;-65
2022/07/09 08:04:04;;;;;;;11.85;6.55;;;21.40;99.90;;;;;;7359843;32;20119;-65
2022/07/09 08:08:06;;;;;;;13.88;8.60;;;21.50;99.90;;;;;;7358454;32;20209;-65
2022/07/09 08:12:08;;;;;;;12.48;7.32;;;21.60;99.90;;;;;;7359512;32;20507;-66
2022/07/09 08:16:10;;;;;;;14.40;7.18;;;21.80;99.90;;;;;;7359272;32;20165;-65
2022/07/09 08:20:12;;;;;;;12.02;6.25;;;22.00;99.90;;;;;;7358438;32;20118;-65
2022/07/09 08:24:14;;;;;;;12.95;7.00;;;22.20;99.90;;;;;;7359259;32;20115;-65
2022/07/09 08:28:16;;;;;;;8.85;5.03;;;22.50;99.90;;;;;;7358347;32;20266;-65
2022/07/09 08:32:18;;;;;;;8.70;3.70;;;22.50;99.90;;;;;;7359016;32;20125;-65
2022/07/09 08:36:19;;;;;;;7.10;3.17;;;22.50;99.90;;;;;;7358584;32;20488;-65
2022/07/09 08:40:21;;;;;;;7.05;2.87;;;22.70;99.90;;;;;;7358256;32;20565;-65
2022/07/09 08:44:28;;;;;;;7.80;3.10;;;22.60;99.90;;;;;;7358683;32;20797;-65
2022/07/09 08:48:35;;;;;;;7.47;2.22;;;22.60;99.90;;;;;;7357462;32;20235;-66
2022/07/09 08:52:40;;;;;;;6.00;2.00;;;22.50;99.90;;;;;;7357974;32;20240;-67
2022/07/09 08:56:41;;;;;;;8.77;2.40;;;22.40;99.90;;;;;;7339952;32;20208;-67
2022/07/09 09:00:43;;;;;;;6.18;2.25;;;23.30;99.90;;;;;;7358113;32;20152;-66
2022/07/09 09:04:45;;;;;;;7.22;2.12;;;24.20;99.90;;;;;;7357531;32;20100;-65
2022/07/09 09:08:47;;;;;;;5.25;2.15;;;24.60;99.90;;;;;;7356752;32;20099;-66
2022/07/09 09:12:55;;;;;;;4.70;1.92;;;24.20;99.90;;;;;;7358666;32;20511;-65
2022/07/09 09:17:09;;;;;;;3.95;2.17;;;24.80;99.90;;;;;;7358383;32;20137;-65
2022/07/09 09:21:12;;;;;;;5.07;2.20;;;25.00;99.90;;;;;;7357381;32;20096;-65
2022/07/09 09:25:21;;;;;;;7.15;2.30;;;25.70;99.90;;;;;;7357584;32;20114;-66
2022/07/09 09:29:22;;;;;;;5.12;2.00;;;26.60;99.90;;;;;;7357396;32;20167;-66
2022/07/09 09:33:24;;;;;;;2.78;1.10;;;26.50;99.90;;;;;;7357508;32;20481;-66
2022/07/09 09:37:29;;;;;;;4.22;0.60;;;26.60;99.90;;;;;;7357541;32;20616;-66
2022/07/09 09:41:31;;;;;;;2.30;1.05;;;26.20;99.90;;;;;;7357136;32;20111;-65
2022/07/09 09:45:34;;;;;;;3.67;1.50;;;26.20;99.90;;;;;;7357666;32;20570;-65
2022/07/09 09:49:41;;;;;;;1.60;0.80;;;26.00;99.90;;;;;;7357015;32;20257;-66
2022/07/09 09:53:43;;;;;;;;;;;25.80;99.90;;;;;;7356907;32;20107;-65
2022/07/09 09:57:45;;;;;;;2.62;0.70;;;25.70;99.90;;;;;;7356334;32;20003;-65
2022/07/09 10:01:47;;;;;;;1.45;0.60;;;25.70;99.90;;;;;;7357918;32;20099;-65
2022/07/09 10:05:51;;;;;;;2.35;0.70;;;25.10;99.90;;;;;;7340513;32;20537;-66
2022/07/09 10:09:57;;;;;;;2.15;0.80;;;24.60;99.90;;;;;;7330697;32;20103;-65
2022/07/09 10:13:59;;;;;;;1.67;0.93;;;24.30;99.90;;;;;;7336736;32;20193;-66
2022/07/09 10:18:11;;;;;;;2.45;0.90;;;24.40;99.90;;;;;;7359042;32;20160;-66
2022/07/09 10:22:13;;;;;;;1.52;0.68;;;24.10;99.90;;;;;;7362652;32;20502;-65
2022/07/09 10:26:14;;;;;;;3.22;0.93;;;24.10;99.90;;;;;;7361826;32;20583;-65
2022/07/09 10:30:26;;;;;;;2.00;0.70;;;24.00;99.90;;;;;;7361074;32;20262;-65
2022/07/09 10:34:37;;;;;;;1.27;0.65;;;24.20;99.90;;;;;;7362456;32;20126;-65
2022/07/09 10:38:39;;;;;;;1.35;0.62;;;24.20;99.90;;;;;;7361364;32;20189;-65
2022/07/09 10:42:43;;;;;;;1.05;0.50;;;24.30;99.90;;;;;;7360230;32;20190;-65
2022/07/09 10:46:56;;;;;;;1.05;0.55;;;24.60;99.90;;;;;;7361772;32;20776;-65
2022/07/09 10:50:58;;;;;;;1.90;0.80;;;25.00;99.90;;;;;;7360099;32;20175;-65
2022/07/09 10:55:00;;;;;;;1.17;0.60;;;25.00;99.90;;;;;;7361149;32;20167;-65
2022/07/09 10:59:01;;;;;;;0.93;0.45;;;24.50;99.90;;;;;;7337750;32;20111;-65
2022/07/09 11:03:05;;;;;;;1.05;0.57;;;24.10;99.90;;;;;;7335942;32;20827;-66
2022/07/09 11:07:07;;;;;;;1.85;0.80;;;24.00;99.90;;;;;;7358758;32;20234;-66
2022/07/09 11:11:09;;;;;;;1.17;0.60;;;24.10;99.90;;;;;;7360393;32;20306;-66
2022/07/09 11:15:17;;;;;;;1.42;0.80;;;24.60;99.90;;;;;;7360200;32;20114;-65
2022/07/09 11:19:19;;;;;;;3.42;0.70;;;24.60;99.90;;;;;;7360369;32;20103;-66
2022/07/09 11:23:21;;;;;;;3.03;0.90;;;24.20;99.90;;;;;;7360178;32;20198;-66
2022/07/09 11:27:23;;;;;;;2.33;0.70;;;24.00;99.90;;;;;;7360294;32;20125;-66
2022/07/09 11:31:24;;;;;;;3.53;0.80;;;23.90;99.90;;;;;;7358923;32;20164;-65
2022/07/09 11:35:31;;;;;;;2.05;1.00;;;23.90;99.90;;;;;;7359581;32;20589;-66
2022/07/09 11:39:36;;;;;;;3.58;0.90;;;23.90;99.90;;;;;;7359759;32;20119;-66
2022/07/09 11:43:38;;;;;;;3.05;1.00;;;23.70;99.90;;;;;;7359434;32;20119;-66
2022/07/09 11:47:40;;;;;;;4.50;1.60;;;23.30;99.90;;;;;;7359048;32;20123;-66
2022/07/09 11:51:43;;;;;;;1.95;1.27;;;23.20;99.90;;;;;;7359874;32;20119;-66
2022/07/09 11:55:56;;;;;;;5.62;1.08;;;23.30;99.90;;;;;;7358240;32;20118;-65
2022/07/09 11:59:59;;;;;;;2.37;1.20;;;23.20;99.90;;;;;;7332825;32;20164;-65
2022/07/09 12:04:00;;;;;;;3.55;1.90;;;23.50;99.90;;;;;;7344087;32;20148;-65
2022/07/09 12:08:05;;;;;;;3.92;1.83;;;23.50;99.90;;;;;;7357178;32;20099;-64
2022/07/09 12:12:07;;;;;;;5.30;2.33;;;23.50;99.90;;;;;;7359046;32;20142;-65
2022/07/09 12:16:09;;;;;;;5.18;2.10;;;24.20;99.90;;;;;;7359085;32;20123;-65
2022/07/09 12:20:11;;;;;;;4.45;2.53;;;24.50;99.90;;;;;;7357933;32;20197;-65
2022/07/09 12:24:13;;;;;;;4.75;2.55;;;24.60;99.90;;;;;;7358816;32;20194;-65
2022/07/09 12:28:14;;;;;;;5.60;2.30;;;24.60;99.90;;;;;;7358635;32;20125;-65
2022/07/09 12:32:16;;;;;;;3.45;2.65;;;24.70;99.90;;;;;;7358281;32;20914;-66
2022/07/09 12:36:25;;;;;;;5.03;3.22;;;24.70;99.90;;;;;;7358888;32;20118;-65
2022/07/09 12:40:47;;;;;;;4.97;2.85;;;24.90;99.90;;;;;;7357970;32;20130;-65
2022/07/09 12:44:49;;;;;;;5.70;3.47;;;24.90;99.90;;;;;;7358061;32;20167;-67
2022/07/09 12:48:51;;;;;;;5.85;3.37;;;24.70;99.90;;;;;;7357144;32;20100;-66
2022/07/09 12:52:53;;;;;;;4.85;3.10;;;24.30;99.90;;;;;;7356099;32;20228;-66
2022/07/09 12:56:55;;;;;;;8.18;3.30;;;23.80;99.90;;;;;;7341478;32;20126;-66
2022/07/09 13:01:12;;;;;;;5.07;3.05;;;23.40;99.90;;;;;;7357130;32;20547;-65
2022/07/09 13:05:16;;;;;;;8.80;2.95;;;23.10;99.90;;;;;;7357337;32;20243;-65
2022/07/09 13:09:18;;;;;;;8.82;3.72;;;22.40;99.90;;;;;;7356776;32;20733;-67
2022/07/09 13:13:20;;;;;;;6.90;3.58;;;21.80;99.90;;;;;;7357543;32;20186;-65
2022/07/09 13:17:22;;;;;;;7.95;4.18;;;21.70;99.90;;;;;;7357189;32;20174;-66
2022/07/09 13:21:34;;;;;;;6.47;4.03;;;22.10;99.90;;;;;;7357678;32;20100;-65
2022/07/09 13:25:36;;;;;;;7.97;4.53;;;22.10;99.90;;;;;;7357269;32;20466;-65
2022/07/09 13:29:38;;;;;;;12.15;5.15;;;22.50;99.90;;;;;;7356184;32;20312;-65
2022/07/09 13:33:40;;;;;;;7.60;4.90;;;22.70;99.90;;;;;;7356400;32;20172;-65
2022/07/09 13:37:41;;;;;;;8.63;4.75;;;22.80;99.90;;;;;;7356522;32;20167;-66
2022/07/09 13:41:43;;;;;;;5.75;4.05;;;23.20;99.90;;;;;;7357544;32;20564;-65
2022/07/09 13:45:45;;;;;;;4.93;3.58;;;23.40;99.90;;;;;;7356614;32;20597;-65
2022/07/09 13:49:47;;;;;;;6.00;3.40;;;23.80;99.90;;;;;;7356191;32;20146;-65
2022/07/09 13:53:48;;;;;;;5.00;3.53;;;24.00;99.90;;;;;;7356327;32;20121;-65
2022/07/09 13:57:50;;;;;;;5.60;3.50;;;24.00;99.90;;;;;;7341682;32;20312;-66
2022/07/09 14:01:52;;;;;;;4.72;3.80;;;23.90;99.90;;;;;;7333012;32;20168;-66
2022/07/09 14:05:54;;;;;;;4.18;3.20;;;23.30;99.90;;;;;;7357200;32;20119;-66
2022/07/09 14:09:56;;;;;;;5.55;3.28;;;23.10;99.90;;;;;;7356179;32;20118;-65
2022/07/09 14:13:57;;;;;;;7.07;3.10;;;22.80;99.90;;;;;;7356306;32;20506;-67
2022/07/09 14:17:59;;;;;;;4.70;3.35;;;23.10;99.90;;;;;;7356268;32;20493;-65
2022/07/09 14:22:02;;;;;;;4.20;2.55;;;23.20;99.90;;;;;;7356460;32;20455;-65
2022/07/09 14:26:04;;;;;;;5.05;2.17;;;23.20;99.90;;;;;;7357022;32;20186;-66
2022/07/09 14:30:06;;;;;;;2.47;1.52;;;23.20;99.90;;;;;;7355600;32;20125;-65
2022/07/09 14:34:08;;;;;;;3.37;1.35;;;23.40;99.90;;;;;;7356087;32;20721;-66
2022/07/09 14:38:10;;;;;;;2.25;1.27;;;23.80;99.90;;;;;;7355517;32;20099;-65
2022/07/09 14:42:11;;;;;;;2.37;1.20;;;24.90;99.90;;;;;;7355754;32;20427;-64
2022/07/09 14:46:13;;;;;;;3.05;0.93;;;24.80;99.90;;;;;;7355859;32;20119;-66
2022/07/09 14:50:15;;;;;;;2.10;1.00;;;24.40;99.90;;;;;;7355516;32;20194;-65
2022/07/09 14:54:18;;;;;;;2.08;1.10;;;23.80;99.90;;;;;;7345762;32;20207;-65
2022/07/09 14:58:19;;;;;;;2.25;1.00;;;23.90;99.90;;;;;;7347421;32;20099;-64
2022/07/09 15:02:21;;;;;;;2.85;0.80;;;23.90;99.90;;;;;;7355404;32;20205;-65
2022/07/09 15:06:23;;;;;;;2.12;0.82;;;23.50;99.90;;;;;;7359511;32;20126;-66
2022/07/09 15:10:25;;;;;;;1.42;0.90;;;23.40;99.90;;;;;;7359020;32;20163;-66
2022/07/09 15:14:27;;;;;;;3.97;1.00;;;23.70;99.90;;;;;;7360387;32;20314;-64
2022/07/09 15:18:28;;;;;;;2.17;0.90;;;23.80;99.90;;;;;;7359663;32;20099;-65
2022/07/09 15:22:31;;;;;;;3.97;0.93;;;23.40;99.90;;;;;;7360059;32;20168;-65
2022/07/09 15:26:32;;;;;;;4.10;1.10;;;23.40;99.90;;;;;;7360235;32;20103;-65
2022/07/09 15:30:34;;;;;;;1.50;0.80;;;23.30;99.90;;;;;;7359335;32;20125;-64
2022/07/09 15:34:36;;;;;;;1.85;0.90;;;23.20;99.90;;;;;;7359585;32;20191;-64
2022/07/09 15:38:38;;;;;;;3.70;0.95;;;23.50;99.90;;;;;;7358846;32;20581;-65
2022/07/09 15:42:40;;;;;;;3.47;0.88;;;23.40;99.90;;;;;;7359255;32;20122;-67
2022/07/09 15:46:44;;;;;;;2.35;0.95;;;23.00;99.90;;;;;;7359478;32;20125;-67
2022/07/09 15:50:45;;;;;;;1.52;0.80;;;22.90;99.90;;;;;;7358666;32;20272;-64
2022/07/09 15:54:47;;;;;;;2.20;0.77;;;22.70;99.90;;;;;;7358912;32;20278;-66
2022/07/09 15:58:49;;;;;;;2.10;0.93;;;22.60;99.90;;;;;;7337309;32;20148;-64
2022/07/09 16:02:52;;;;;;;3.08;0.85;;;22.70;99.90;;;;;;7341724;32;20107;-63
2022/07/09 16:06:54;;;;;;;1.70;0.80;;;22.50;99.90;;;;;;7359274;32;20147;-64
2022/07/09 16:10:56;;;;;;;4.43;1.10;;;22.30;99.90;;;;;;7358269;32;20118;-64
2022/07/09 16:14:58;;;;;;;2.70;0.80;;;22.30;99.90;;;;;;7358396;32;20190;-64
2022/07/09 16:18:59;;;;;;;3.17;0.98;;;22.10;99.90;;;;;;7358136;32;20495;-65
2022/07/09 16:23:01;;;;;;;3.00;0.80;;;22.10;99.90;;;;;;7358929;32;20179;-65
2022/07/09 16:27:03;;;;;;;5.75;0.80;;;22.00;99.90;;;;;;7358464;32;20521;-64
2022/07/09 16:31:05;;;;;;;3.03;0.70;;;21.90;99.90;;;;;;7358192;32;20623;-64
2022/07/09 16:35:08;;;;;;;2.97;0.60;;;22.00;99.90;;;;;;7358981;32;20099;-64
2022/07/09 16:39:10;;;;;;;3.17;0.88;;;21.80;99.90;;;;;;7357747;32;20201;-67
2022/07/09 16:43:12;;;;;;;3.87;0.62;;;22.00;99.90;;;;;;7357774;32;20192;-67
2022/07/09 16:47:14;;;;;;;2.42;0.60;;;22.00;99.90;;;;;;7358428;32;20127;-67
2022/07/09 16:51:15;;;;;;;2.60;0.68;;;21.90;99.90;;;;;;7357983;32;20126;-67
2022/07/09 16:55:17;;;;;;;3.35;0.60;;;22.10;99.90;;;;;;7342052;32;20127;-67
2022/07/09 16:59:19;;;;;;;1.42;0.60;;;22.10;99.90;;;;;;7355879;32;20614;-67
2022/07/09 17:03:41;;;;;;;1.40;0.40;;;22.10;99.90;;;;;;7358229;32;20103;-66
2022/07/09 17:07:43;;;;;;;1.70;0.60;;;22.20;99.90;;;;;;7357127;32;20541;-65
2022/07/09 17:11:45;;;;;;;3.28;0.73;;;22.10;99.90;;;;;;7357533;32;20107;-65
2022/07/09 17:15:47;;;;;;;1.75;0.50;;;22.20;99.90;;;;;;7357122;32;20099;-65
2022/07/09 17:19:48;;;;;;;2.67;0.80;;;22.10;99.90;;;;;;7357296;32;20360;-66
2022/07/09 17:23:50;;;;;;;1.92;0.70;;;22.20;99.90;;;;;;7357737;32;20103;-65
2022/07/09 17:27:55;;;;;;;2.72;0.70;;;22.30;99.90;;;;;;7356310;32;20123;-65
2022/07/09 17:31:57;;;;;;;3.00;0.80;;;22.20;99.90;;;;;;7357534;32;20661;-66
2022/07/09 17:35:59;;;;;;;3.28;0.80;;;21.90;99.90;;;;;;7357987;32;20144;-66
2022/07/09 17:40:06;;;;;;;2.92;1.08;;;21.70;99.90;;;;;;7357221;32;20107;-66
2022/07/09 17:44:08;;;;;;;3.12;1.00;;;21.50;99.90;;;;;;7356871;32;20253;-65
2022/07/09 17:48:09;;;;;;;5.53;1.27;;;21.40;99.90;;;;;;7356471;32;20178;-66
2022/07/09 17:52:11;;;;;;;7.87;1.12;;;21.40;99.90;;;;;;7356429;32;20103;-66
2022/07/09 17:56:13;;;;;;;5.78;1.00;;;21.10;99.90;;;;;;7352672;32;20314;-65
2022/07/09 18:00:17;;;;;;;3.03;0.88;;;20.90;99.90;;;;;;7331326;32;20125;-66
2022/07/09 18:04:19;;;;;;;2.17;0.85;;;20.90;99.90;;;;;;7349811;32;20547;-65
2022/07/09 18:08:21;;;;;;;4.35;1.08;;;20.70;99.90;;;;;;7356431;32;20104;-66
2022/07/09 18:12:23;;;;;;;3.37;1.02;;;20.60;99.90;;;;;;7357019;32;20174;-66
2022/07/09 18:16:25;;;;;;;4.85;0.88;;;20.40;99.90;;;;;;7356717;32;20222;-66
2022/07/09 18:20:26;;;;;;;3.50;0.90;;;20.30;99.90;;;;;;7355766;32;20141;-65
2022/07/09 18:24:28;;;;;;;3.17;0.82;;;20.00;99.90;;;;;;7356413;32;20662;-66
2022/07/09 18:28:30;;;;;;;2.55;0.85;;;19.90;99.90;;;;;;7355227;32;20793;-66
2022/07/09 18:32:32;;;;;;;4.00;0.80;;;19.80;99.90;;;;;;7356695;32;20186;-67
2022/07/09 18:36:34;;;;;;;4.82;1.23;;;19.70;99.90;;;;;;7357104;32;20190;-65
2022/07/09 18:40:38;;;;;;;7.15;1.15;;;19.50;99.90;;;;;;7359676;32;20163;-65
2022/07/09 18:44:42;;;;;;;4.47;0.90;;;19.50;99.90;;;;;;7361121;32;20122;-67
2022/07/09 18:48:44;;;;;;;2.83;0.82;;;19.30;99.90;;;;;;7360847;32;20127;-67
2022/07/09 18:52:46;;;;;;;5.65;1.15;;;19.30;99.90;;;;;;7361190;32;20126;-66
2022/07/09 18:56:48;;;;;;;2.25;0.90;;;19.20;99.90;;;;;;7344211;32;20212;-66
2022/07/09 19:00:50;;;;;;;6.15;1.05;;;19.00;99.90;;;;;;7361121;32;20108;-67
2022/07/09 19:04:52;;;;;;;3.60;0.80;;;18.90;99.90;;;;;;7361516;32;20099;-66
2022/07/09 19:08:53;;;;;;;3.87;0.95;;;18.80;99.90;;;;;;7360662;32;20186;-66
2022/07/09 19:12:55;;;;;;;6.47;0.85;;;18.70;99.90;;;;;;7361061;32;20458;-66
2022/07/09 19:16:57;;;;;;;4.05;1.10;;;18.60;99.90;;;;;;7361343;32;20135;-67
2022/07/09 19:21:01;;;;;;;2.65;1.00;;;18.40;99.90;;;;;;7360530;32;20484;-67
2022/07/09 19:25:07;;;;;;;5.45;1.00;;;18.30;99.90;;;;;;7361249;32;20119;-67
2022/07/09 19:29:09;;;;;;;4.25;0.93;;;18.20;99.90;;;;;;7361158;32;20130;-68
2022/07/09 19:37:33;;;;;;;3.72;0.73;;;18.00;99.90;;;;;;7359796;32;20534;-66
2022/07/09 19:41:35;;;;;;;4.65;1.33;;;17.90;99.90;;;;;;7360295;32;20123;-66
2022/07/09 19:45:37;;;;;;;4.62;2.78;;;17.70;99.90;;;;;;7360748;32;20648;-67
2022/07/09 19:49:39;;;;;;;3.12;0.90;;;17.60;99.90;;;;;;7359513;32;20216;-68
2022/07/09 19:53:40;;;;;;;4.57;0.80;;;17.50;99.90;;;;;;7359945;32;20123;-66
2022/07/09 19:57:42;;;;;;;4.80;1.00;;;17.50;99.90;;;;;;7345617;32;20503;-66
2022/07/09 20:01:44;;;;;;;5.85;1.15;;;17.30;99.90;;;;;;7334736;32;20100;-63
2022/07/09 20:05:46;;;;;;;4.15;0.93;;;17.30;99.90;;;;;;7359815;32;20265;-61
2022/07/09 20:09:49;;;;;;;4.22;1.00;;;17.20;99.90;;;;;;7359420;32;20099;-63
2022/07/09 20:13:51;;;;;;;5.53;1.42;;;17.10;99.90;;;;;;7360194;32;20121;-62
2022/07/09 20:17:53;;;;;;;4.15;1.40;;;17.00;99.90;;;;;;7359314;32;20577;-62
2022/07/09 20:21:55;;;;;;;7.93;1.00;;;17.00;99.90;;;;;;7359858;32;20533;-63
2022/07/09 20:25:56;;;;;;;6.68;1.20;;;16.90;99.90;;;;;;7359716;32;20672;-62
2022/07/09 20:29:58;;;;;;;4.43;1.30;;;16.80;99.90;;;;;;7359593;32;20124;-62
2022/07/09 20:34:00;;;;;;;5.82;1.40;;;16.70;99.90;;;;;;7359305;32;20147;-63
2022/07/09 20:38:02;;;;;;;5.18;1.17;;;16.60;99.90;;;;;;7358967;32;20817;-62
2022/07/09 20:42:04;;;;;;;2.58;0.95;;;16.60;99.90;;;;;;7358816;32;20190;-62
2022/07/09 20:46:06;;;;;;;8.50;5.15;;;16.40;99.90;;;;;;7359876;32;20182;-63
2022/07/09 20:50:08;;;;;;;5.00;1.60;;;16.30;99.90;;;;;;7358477;32;20217;-62
2022/07/09 20:54:10;;;;;;;7.15;1.20;;;16.10;99.90;;;;;;7349955;32;20523;-63
2022/07/09 20:58:12;;;;;;;3.78;1.12;;;16.10;99.90;;;;;;7348982;32;20156;-62
2022/07/09 21:02:14;;;;;;;6.43;1.67;;;16.00;99.90;;;;;;7358421;32;20107;-62
2022/07/09 21:06:15;;;;;;;9.05;1.33;;;15.80;99.90;;;;;;7359507;32;20100;-62
2022/07/09 21:10:17;;;;;;;6.53;1.20;;;15.80;99.90;;;;;;7358340;32;20194;-61